createdAt,value
2023-04-17T00:02:10.267Z,58.50
2023-04-17T00:04:37.530Z,54.07
2023-04-17T00:07:04.768Z,55.87
2023-04-17T00:09:31.823Z,57.17
2023-04-17T00:11:58.959Z,61.37
2023-04-17T00:14:27.379Z,53.23
2023-04-17T00:16:54.559Z,60.30
2023-04-17T00:19:21.662Z,59.03
2023-04-17T00:21:48.689Z,62.60
2023-04-17T00:24:15.751Z,56.50
2023-04-17T00:26:42.869Z,58.90
2023-04-17T00:29:10.236Z,55.37
2023-04-17T00:31:38.847Z,57.03
2023-04-17T00:34:06.042Z,61.27
2023-04-17T00:36:33.194Z,56.53
2023-04-17T00:39:00.269Z,56.40
2023-04-17T00:41:27.528Z,59.07
2023-04-17T00:43:54.659Z,61.80
2023-04-17T00:46:22.057Z,62.13
2023-04-17T00:48:50.718Z,68.40
2023-04-17T00:51:17.850Z,59.33
2023-04-17T00:53:45.114Z,52.73
2023-04-17T00:56:12.194Z,53.97
2023-04-17T00:58:39.606Z,55.80
2023-04-17T01:01:06.876Z,57.07
2023-04-17T01:03:34.366Z,56.50
2023-04-17T01:06:03.104Z,60.80
2023-04-17T01:08:34.294Z,54.30
2023-04-17T01:11:01.367Z,62.30
2023-04-17T01:13:28.713Z,58.30
2023-04-17T01:15:55.921Z,64.63
2023-04-17T01:18:22.973Z,52.13
2023-04-17T01:20:50.059Z,54.97
2023-04-17T01:23:18.871Z,64.73
2023-04-17T01:25:47.269Z,57.90
2023-04-17T01:28:14.399Z,48.67
2023-04-17T01:30:41.572Z,57.40
2023-04-17T01:33:09.294Z,55.80
2023-04-17T01:35:36.853Z,57.33
2023-04-17T01:38:04.117Z,51.40
2023-04-17T01:40:31.196Z,60.53
2023-04-17T01:42:59.862Z,61.40
2023-04-17T01:45:26.950Z,58.70
2023-04-17T01:47:54.017Z,59.33
2023-04-17T01:50:21.100Z,61.90
2023-04-17T01:52:48.136Z,64.70
2023-04-17T01:55:15.256Z,53.83
2023-04-17T01:57:42.326Z,56.40
2023-04-17T02:00:11.483Z,57.97
2023-04-17T02:02:43.444Z,61.43
2023-04-17T02:05:10.625Z,58.27
2023-04-17T02:07:37.686Z,58.07
2023-04-17T02:10:04.885Z,66.53
2023-04-17T02:12:31.967Z,62.07
2023-04-17T02:14:59.022Z,70.20
2023-04-17T02:17:27.549Z,59.57
2023-04-17T02:19:54.655Z,61.10
2023-04-17T02:22:21.670Z,57.90
2023-04-17T02:24:48.746Z,68.40
2023-04-17T02:27:15.772Z,70.80
2023-04-17T02:29:43.934Z,60.87
2023-04-17T02:32:10.985Z,58.30
2023-04-17T02:34:39.696Z,59.10
2023-04-17T02:37:06.889Z,67.43
2023-04-17T02:39:36.075Z,71.13
2023-04-17T02:42:03.291Z,65.80
2023-04-17T02:44:30.565Z,75.83
2023-04-17T02:46:58.041Z,65.80
2023-04-17T02:49:26.657Z,70.77
2023-04-17T02:51:55.047Z,69.13
2023-04-17T02:54:22.187Z,62.03
2023-04-17T02:56:49.749Z,60.60
2023-04-17T02:59:16.901Z,51.60
2023-04-17T03:01:44.049Z,59.30
2023-04-17T03:04:11.233Z,58.97
2023-04-17T03:06:38.366Z,56.50
2023-04-17T03:09:06.801Z,63.60
2023-04-17T03:11:35.238Z,60.20
2023-04-17T03:14:02.306Z,60.60
2023-04-17T03:16:29.413Z,57.57
2023-04-17T03:18:59.417Z,59.07
2023-04-17T03:21:26.748Z,62.40
2023-04-17T03:23:53.881Z,58.67
2023-04-17T03:26:23.099Z,62.30
2023-04-17T03:28:50.663Z,61.53
2023-04-17T03:31:17.864Z,58.13
2023-04-17T03:33:44.975Z,63.67
2023-04-17T03:36:12.099Z,60.97
2023-04-17T03:38:39.612Z,58.27
2023-04-17T03:41:08.632Z,61.50
2023-04-17T03:43:37.037Z,63.83
2023-04-17T03:46:04.158Z,62.00
2023-04-17T03:48:31.684Z,64.97
2023-04-17T03:50:59.012Z,62.90
2023-04-17T03:53:26.820Z,64.00
2023-04-17T03:55:54.518Z,64.10
2023-04-17T03:58:26.498Z,72.13
2023-04-17T04:00:55.507Z,63.37
2023-04-17T04:03:25.839Z,62.80
2023-04-17T04:05:53.562Z,74.20
2023-04-17T04:08:20.712Z,67.20
2023-04-17T04:10:51.679Z,59.90
2023-04-17T04:13:25.079Z,63.73
2023-04-17T04:15:57.857Z,62.17
2023-04-17T04:18:27.303Z,66.07
2023-04-17T04:20:54.458Z,61.40
2023-04-17T04:23:27.347Z,65.53
2023-04-17T04:25:54.391Z,61.80
2023-04-17T04:28:27.437Z,63.20
2023-04-17T04:30:54.645Z,55.53
2023-04-17T04:33:27.456Z,63.67
2023-04-17T04:35:54.583Z,55.40
2023-04-17T04:38:21.886Z,56.07
2023-04-17T04:40:49.345Z,52.37
2023-04-17T04:43:16.563Z,54.50
2023-04-17T04:45:45.025Z,46.70
2023-04-17T04:48:12.156Z,46.87
2023-04-17T04:50:40.569Z,47.80
2023-04-17T04:53:07.618Z,39.50
2023-04-17T04:55:43.609Z,43.70
2023-04-17T04:58:10.722Z,46.33
2023-04-17T05:00:39.164Z,43.20
2023-04-17T05:03:06.531Z,46.03
2023-04-17T05:05:33.823Z,43.00
2023-04-17T05:08:03.372Z,42.17
2023-04-17T05:10:33.817Z,46.70
2023-04-17T05:13:04.245Z,47.30
2023-04-17T05:15:32.277Z,48.20
2023-04-17T05:17:59.453Z,44.67
2023-04-17T05:20:28.386Z,51.83
2023-04-17T05:22:58.118Z,56.33
2023-04-17T05:25:26.585Z,51.67
2023-04-17T05:27:55.706Z,55.80
2023-04-17T05:30:22.898Z,52.13
2023-04-17T05:33:04.679Z,51.03
2023-04-17T05:35:43.373Z,44.97
2023-04-17T05:38:10.525Z,52.20
2023-04-17T05:40:38.958Z,54.60
2023-04-17T05:43:07.160Z,54.53
2023-04-17T05:45:34.338Z,60.63
2023-04-17T05:48:01.549Z,57.00
2023-04-17T05:50:28.898Z,46.53
2023-04-17T05:52:56.004Z,49.93
2023-04-17T05:55:26.450Z,42.63
2023-04-17T05:57:58.384Z,44.27
2023-04-17T06:00:26.002Z,45.83
2023-04-17T06:02:58.439Z,38.30
2023-04-17T06:05:33.487Z,41.87
2023-04-17T06:08:00.696Z,38.90
2023-04-17T06:10:28.173Z,45.97
2023-04-17T06:12:55.275Z,40.60
2023-04-17T06:15:23.975Z,45.43
2023-04-17T06:17:51.052Z,36.10
2023-04-17T06:20:18.608Z,37.23
2023-04-17T06:22:45.682Z,39.23
2023-04-17T06:25:13.399Z,40.57
2023-04-17T06:27:40.701Z,36.00
2023-04-17T06:30:08.675Z,46.20
2023-04-17T06:32:48.118Z,38.50
2023-04-17T06:35:15.238Z,39.77
2023-04-17T06:37:47.291Z,38.30
2023-04-17T06:40:16.963Z,35.83
2023-04-17T06:42:44.118Z,39.90
2023-04-17T06:45:17.497Z,33.53
2023-04-17T06:47:46.163Z,38.37
2023-04-17T06:50:18.104Z,36.00
2023-04-17T06:52:45.192Z,32.33
2023-04-17T06:55:12.338Z,39.30
2023-04-17T06:57:39.463Z,36.03
2023-04-17T07:00:07.229Z,34.87
2023-04-17T07:02:34.423Z,35.60
2023-04-17T07:05:01.629Z,34.93
2023-04-17T07:07:30.043Z,32.20
2023-04-17T07:09:57.391Z,41.70
2023-04-17T07:12:24.647Z,37.67
2023-04-17T07:14:51.695Z,34.07
2023-04-17T07:17:18.780Z,31.97
2023-04-17T07:19:46.033Z,36.07
2023-04-17T07:22:13.167Z,35.33
2023-04-17T07:24:41.529Z,31.60
2023-04-17T07:27:08.601Z,32.33
2023-04-17T07:29:35.670Z,30.47
2023-04-17T07:32:03.134Z,40.33
2023-04-17T07:34:31.147Z,29.00
2023-04-17T07:36:58.223Z,31.23
2023-04-17T07:39:25.982Z,28.73
2023-04-17T07:41:54.390Z,32.50
2023-04-17T07:44:21.480Z,33.73
2023-04-17T07:46:48.671Z,36.93
2023-04-17T07:49:16.042Z,34.27
2023-04-17T07:51:43.239Z,30.13
2023-04-17T07:54:10.411Z,32.33
2023-04-17T07:56:37.508Z,30.80
2023-04-17T07:59:05.975Z,29.07
2023-04-17T08:01:33.164Z,29.77
2023-04-17T08:04:00.440Z,35.43
2023-04-17T08:06:27.589Z,30.73
2023-04-17T08:08:54.652Z,30.40
2023-04-17T08:11:21.733Z,29.70
2023-04-17T08:13:48.836Z,36.87
2023-04-17T08:16:17.350Z,31.53
2023-04-17T08:18:44.465Z,29.80
2023-04-17T08:21:11.575Z,31.30
2023-04-17T08:23:38.618Z,32.13
2023-04-17T08:26:05.853Z,32.23
2023-04-17T08:28:32.902Z,33.53
2023-04-17T08:31:00.042Z,32.20
2023-04-17T08:33:28.479Z,29.03
2023-04-17T08:35:55.606Z,27.40
2023-04-17T08:38:22.652Z,28.63
2023-04-17T08:40:50.648Z,30.30
2023-04-17T08:43:18.148Z,29.20
2023-04-17T08:45:47.905Z,29.77
2023-04-17T08:48:15.165Z,28.27
2023-04-17T08:50:47.114Z,28.37
2023-04-17T08:53:14.398Z,29.33
2023-04-17T08:55:41.789Z,33.00
2023-04-17T08:58:08.860Z,30.53
2023-04-17T09:00:36.563Z,28.57
2023-04-17T09:03:04.553Z,25.77
2023-04-17T09:05:32.476Z,25.33
2023-04-17T09:08:11.365Z,28.07
2023-04-17T09:10:39.314Z,29.60
2023-04-17T09:13:06.435Z,27.60
2023-04-17T09:15:33.936Z,28.47
2023-04-17T09:18:01.149Z,29.60
2023-04-17T09:20:28.330Z,30.93
2023-04-17T09:23:02.407Z,28.43
2023-04-17T09:25:30.846Z,28.20
2023-04-17T09:28:02.811Z,28.17
2023-04-17T09:30:36.786Z,31.27
2023-04-17T09:33:04.592Z,26.27
2023-04-17T09:35:31.971Z,30.60
2023-04-17T09:37:59.200Z,29.13
2023-04-17T09:40:26.676Z,26.47
2023-04-17T09:42:56.486Z,27.50
2023-04-17T09:45:24.089Z,29.43
2023-04-17T09:47:51.316Z,24.40
2023-04-17T09:50:18.931Z,22.83
2023-04-17T09:52:46.559Z,24.60
2023-04-17T09:55:13.860Z,24.10
2023-04-17T09:57:43.422Z,19.43
2023-04-17T10:00:14.054Z,20.93
2023-04-17T10:02:42.627Z,22.17
2023-04-17T10:05:11.201Z,22.20
2023-04-17T10:07:38.510Z,21.17
2023-04-17T10:10:06.234Z,17.73
2023-04-17T10:12:34.819Z,20.10
2023-04-17T10:15:02.498Z,18.53
2023-04-17T10:17:32.090Z,21.07
2023-04-17T10:20:14.160Z,22.03
2023-04-17T10:22:42.386Z,17.73
2023-04-17T10:25:20.031Z,17.90
2023-04-17T10:27:49.765Z,18.33
2023-04-17T10:30:17.284Z,18.13
2023-04-17T10:32:47.086Z,23.67
2023-04-17T10:35:32.766Z,14.67
2023-04-17T10:38:03.987Z,14.10
2023-04-17T10:40:31.799Z,16.13
2023-04-17T10:43:02.733Z,18.47
2023-04-17T10:45:52.266Z,16.70
2023-04-17T10:48:26.134Z,16.20
2023-04-17T10:50:53.342Z,16.70
2023-04-17T10:53:37.365Z,18.60
2023-04-17T10:56:04.584Z,16.33
2023-04-17T10:58:32.136Z,19.33
2023-04-17T11:01:03.399Z,14.93
2023-04-17T11:03:32.163Z,14.70
2023-04-17T11:05:59.694Z,12.40
2023-04-17T11:08:26.777Z,11.40
2023-04-17T11:10:53.995Z,13.20
2023-04-17T11:13:21.060Z,10.20
2023-04-17T11:15:48.301Z,13.27
2023-04-17T11:18:15.360Z,11.37
2023-04-17T11:20:43.860Z,11.43
2023-04-17T11:23:10.927Z,15.40
2023-04-17T11:25:40.721Z,11.83
2023-04-17T11:28:07.757Z,11.10
2023-04-17T11:30:35.938Z,10.73
2023-04-17T11:33:03.600Z,10.15
2023-04-17T11:35:31.771Z,10.25
2023-04-17T11:38:13.941Z,9.60
2023-04-17T11:40:44.688Z,11.07
2023-04-17T11:43:11.894Z,13.63
2023-04-17T11:45:40.369Z,10.10
2023-04-17T11:48:09.361Z,9.90
2023-04-17T11:50:36.600Z,10.20
2023-04-17T11:53:04.307Z,10.68
2023-04-17T11:55:32.973Z,10.32
2023-04-17T11:58:00.457Z,10.80
2023-04-17T12:00:28.335Z,10.68
2023-04-17T12:02:55.657Z,10.02
2023-04-17T12:05:23.343Z,10.45
2023-04-17T12:07:59.069Z,9.15
2023-04-17T12:10:37.072Z,11.80
2023-04-17T12:13:04.168Z,12.32
2023-04-17T12:15:31.333Z,11.82
2023-04-17T12:17:58.473Z,10.13
2023-04-17T12:20:26.757Z,8.68
2023-04-17T12:22:53.996Z,10.60
2023-04-17T12:25:21.057Z,8.82
2023-04-17T12:27:49.523Z,13.63
2023-04-17T12:30:16.607Z,11.35
2023-04-17T12:32:43.776Z,10.45
2023-04-17T12:35:10.849Z,8.20
2023-04-17T12:37:37.888Z,10.13
2023-04-17T12:40:05.499Z,8.43
2023-04-17T12:42:36.348Z,8.18
2023-04-17T12:45:15.295Z,7.50
2023-04-17T12:47:42.892Z,10.52
2023-04-17T12:50:10.788Z,9.35
2023-04-17T12:52:37.973Z,8.95
2023-04-17T12:55:05.486Z,8.93
2023-04-17T12:57:32.637Z,8.75
2023-04-17T12:59:59.696Z,8.27
2023-04-17T13:02:28.213Z,8.43
2023-04-17T13:04:55.467Z,11.65
2023-04-17T13:07:22.767Z,7.75
2023-04-17T13:09:49.977Z,6.10
2023-04-17T13:12:17.009Z,7.78
2023-04-17T13:14:44.204Z,7.97
2023-04-17T13:17:11.341Z,7.53
2023-04-17T13:19:39.768Z,7.70
2023-04-17T13:22:06.868Z,9.27
2023-04-17T13:24:34.128Z,7.25
2023-04-17T13:27:01.206Z,6.38
2023-04-17T13:29:28.349Z,7.25
2023-04-17T13:31:55.462Z,12.98
2023-04-17T13:34:22.613Z,7.72
2023-04-17T13:36:51.107Z,14.43
2023-04-17T13:39:18.228Z,8.32
2023-04-17T13:41:45.328Z,9.18
2023-04-17T13:44:12.692Z,11.77
2023-04-17T13:46:39.877Z,8.68
2023-04-17T13:49:07.125Z,7.65
2023-04-17T13:51:34.173Z,9.15
2023-04-17T13:54:02.712Z,6.55
2023-04-17T13:56:29.877Z,7.60
2023-04-17T13:58:56.947Z,7.88
2023-04-17T14:01:24.018Z,8.32
2023-04-17T14:03:51.256Z,12.38
2023-04-17T14:06:18.524Z,7.85
2023-04-17T14:08:45.651Z,10.20
2023-04-17T14:11:14.145Z,7.57
2023-04-17T14:13:41.179Z,12.35
2023-04-17T14:16:08.346Z,8.10
2023-04-17T14:18:35.422Z,9.65
2023-04-17T14:21:02.562Z,7.05
2023-04-17T14:23:29.757Z,10.40
2023-04-17T14:25:56.964Z,10.20
2023-04-17T14:28:25.447Z,8.65
2023-04-17T14:30:52.506Z,7.57
2023-04-17T14:33:19.539Z,7.88
2023-04-17T14:35:46.571Z,8.50
2023-04-17T14:38:13.671Z,7.85
2023-04-17T14:40:40.696Z,6.97
2023-04-17T14:43:07.762Z,8.88
2023-04-17T14:45:36.178Z,7.57
2023-04-17T14:48:03.362Z,8.70
2023-04-17T14:50:30.543Z,10.15
2023-04-17T14:52:57.646Z,12.30
2023-04-17T14:55:24.773Z,8.95
2023-04-17T14:57:51.997Z,10.70
2023-04-17T15:00:19.441Z,14.07
2023-04-17T15:02:47.958Z,8.57
2023-04-17T15:05:15.128Z,8.32
2023-04-17T15:07:42.237Z,8.00
2023-04-17T15:10:09.706Z,10.73
2023-04-17T15:12:36.785Z,8.48
2023-04-17T15:15:04.055Z,10.70
2023-04-17T15:17:31.125Z,7.97
2023-04-17T15:19:59.524Z,15.65
2023-04-17T15:22:27.087Z,11.68
2023-04-17T15:24:54.267Z,7.95
2023-04-17T15:27:21.388Z,9.48
2023-04-17T15:29:48.449Z,9.90
2023-04-17T15:32:15.596Z,10.05
2023-04-17T15:34:42.734Z,13.70
2023-04-17T15:37:11.384Z,8.43
2023-04-17T15:39:39.053Z,9.55
2023-04-17T15:42:07.531Z,9.75
2023-04-17T15:44:34.734Z,11.25
2023-04-17T15:47:02.267Z,11.43
2023-04-17T15:49:29.318Z,11.27
2023-04-17T15:51:56.467Z,10.90
2023-04-17T15:54:24.794Z,9.87
2023-04-17T15:56:51.980Z,14.93
2023-04-17T15:59:19.010Z,17.00
2023-04-17T16:01:46.360Z,12.37
2023-04-17T16:04:13.549Z,10.20
2023-04-17T16:06:40.691Z,9.73
2023-04-17T16:09:07.738Z,11.33
2023-04-17T16:11:36.205Z,10.10
2023-04-17T16:14:03.366Z,10.03
2023-04-17T16:16:30.502Z,16.83
2023-04-17T16:18:57.605Z,10.07
2023-04-17T16:21:24.661Z,10.30
2023-04-17T16:23:51.752Z,16.60
2023-04-17T16:26:18.837Z,11.67
2023-04-17T16:28:47.231Z,16.50
2023-04-17T16:31:16.322Z,10.33
2023-04-17T16:33:44.145Z,11.50
2023-04-17T16:36:11.200Z,11.70
2023-04-17T16:38:38.265Z,9.10
2023-04-17T16:41:05.287Z,10.87
2023-04-17T16:43:32.309Z,12.30
2023-04-17T16:46:05.449Z,9.33
2023-04-17T16:48:35.643Z,13.90
2023-04-17T16:51:05.911Z,13.63
2023-04-17T16:53:33.055Z,9.33
2023-04-17T16:56:00.146Z,10.07
2023-04-17T16:58:27.288Z,10.90
2023-04-17T17:00:54.381Z,13.23
2023-04-17T17:03:22.922Z,9.90
2023-04-17T17:05:50.001Z,8.60
2023-04-17T17:08:17.092Z,9.90
2023-04-17T17:10:44.123Z,8.40
2023-04-17T17:13:11.245Z,10.90
2023-04-17T17:15:38.284Z,10.70
2023-04-17T17:18:05.635Z,11.07
2023-04-17T17:20:34.219Z,9.90
2023-04-17T17:23:01.342Z,9.20
2023-04-17T17:25:28.433Z,9.93
2023-04-17T17:27:55.550Z,11.57
2023-04-17T17:30:22.694Z,13.13
2023-04-17T17:32:49.866Z,8.93
2023-04-17T17:35:16.948Z,12.47
2023-04-17T17:37:45.332Z,9.50
2023-04-17T17:40:12.595Z,9.83
2023-04-17T17:42:39.671Z,13.00
2023-04-17T17:45:07.190Z,10.53
2023-04-17T17:47:34.269Z,9.37
2023-04-17T17:50:01.357Z,8.27
2023-04-17T17:52:28.388Z,6.87
2023-04-17T17:54:56.818Z,10.87
2023-04-17T17:57:23.963Z,13.87
2023-04-17T17:59:51.108Z,9.77
2023-04-17T18:02:18.414Z,13.00
2023-04-17T18:04:45.660Z,9.70
2023-04-17T18:07:12.775Z,14.93
2023-04-17T18:09:39.832Z,9.07
2023-04-17T18:12:08.424Z,10.77
2023-04-17T18:14:35.544Z,9.67
2023-04-17T18:17:02.620Z,8.20
2023-04-17T18:19:29.661Z,10.90
2023-04-17T18:21:56.806Z,12.57
2023-04-17T18:24:23.881Z,8.53
2023-04-17T18:26:51.050Z,11.70
2023-04-17T18:29:19.444Z,10.43
2023-04-17T18:31:46.593Z,9.40
2023-04-17T18:34:13.964Z,8.90
2023-04-17T18:36:41.091Z,7.60
2023-04-17T18:39:08.130Z,9.53
2023-04-17T18:41:35.157Z,11.17
2023-04-17T18:44:02.206Z,9.97
2023-04-17T18:46:30.720Z,13.20
2023-04-17T18:48:57.907Z,10.57
2023-04-17T18:51:24.948Z,13.90
2023-04-17T18:53:51.996Z,12.53
2023-04-17T18:56:19.054Z,15.17
2023-04-17T18:58:46.166Z,18.63
2023-04-17T19:01:13.271Z,13.90
2023-04-17T19:03:41.716Z,11.17
2023-04-17T19:06:08.872Z,12.20
2023-04-17T19:08:36.356Z,14.50
2023-04-17T19:11:03.576Z,12.40
2023-04-17T19:13:30.642Z,12.70
2023-04-17T19:15:57.792Z,12.80
2023-04-17T19:18:24.917Z,11.13
2023-04-17T19:20:53.422Z,16.20
2023-04-17T19:23:20.484Z,11.00
2023-04-17T19:25:50.658Z,10.47
2023-04-17T19:28:17.763Z,13.00
2023-04-17T19:30:44.885Z,12.93
2023-04-17T19:33:11.980Z,12.87
2023-04-17T19:35:39.019Z,8.73
2023-04-17T19:38:07.596Z,10.70
2023-04-17T19:40:34.661Z,11.83
2023-04-17T19:43:01.766Z,11.83
2023-04-17T19:45:29.075Z,11.40
2023-04-17T19:47:56.256Z,16.00
2023-04-17T19:50:23.617Z,11.80
2023-04-17T19:52:50.712Z,11.80
2023-04-17T19:55:19.399Z,15.10
2023-04-17T19:57:46.487Z,10.57
2023-04-17T20:00:13.948Z,14.23
2023-04-17T20:02:41.158Z,14.50
2023-04-17T20:05:08.746Z,11.00
2023-04-17T20:07:35.918Z,18.50
2023-04-17T20:10:03.015Z,12.83
2023-04-17T20:12:31.398Z,13.47
2023-04-17T20:14:58.449Z,12.30
2023-04-17T20:17:25.669Z,14.07
2023-04-17T20:19:52.879Z,13.40
2023-04-17T20:22:19.970Z,12.57
2023-04-17T20:24:47.027Z,12.37
2023-04-17T20:27:14.118Z,14.20
2023-04-17T20:29:42.487Z,10.70
2023-04-17T20:32:09.534Z,13.67
2023-04-17T20:34:36.619Z,11.33
2023-04-17T20:37:03.653Z,11.13
2023-04-17T20:39:30.700Z,13.63
2023-04-17T20:41:57.737Z,11.23
2023-04-17T20:44:24.792Z,12.30
2023-04-17T20:46:53.217Z,12.23
2023-04-17T20:49:20.267Z,13.93
2023-04-17T20:51:47.344Z,15.47
2023-04-17T20:54:14.603Z,14.03
2023-04-17T20:56:41.839Z,12.53
2023-04-17T20:59:08.865Z,15.30
2023-04-17T21:01:35.983Z,11.33
2023-04-17T21:04:04.396Z,12.53
2023-04-17T21:06:31.574Z,13.20
2023-04-17T21:08:58.658Z,14.30
2023-04-17T21:11:26.671Z,12.27
2023-04-17T21:13:54.002Z,11.73
2023-04-17T21:16:21.145Z,13.67
2023-04-17T21:18:48.358Z,14.00
2023-04-17T21:21:16.794Z,18.00
2023-04-17T21:23:43.857Z,12.87
2023-04-17T21:26:10.930Z,15.80
2023-04-17T21:28:37.976Z,14.33
2023-04-17T21:31:05.065Z,12.37
2023-04-17T21:33:32.108Z,16.20
2023-04-17T21:35:59.210Z,17.83
2023-04-17T21:38:27.605Z,11.33
2023-04-17T21:40:54.666Z,12.63
2023-04-17T21:43:21.700Z,19.83
2023-04-17T21:45:48.828Z,19.60
2023-04-17T21:48:16.117Z,15.60
2023-04-17T21:50:43.238Z,19.60
2023-04-17T21:53:10.292Z,13.57
2023-04-17T21:55:39.272Z,14.00
2023-04-17T21:58:06.295Z,18.57
2023-04-17T22:00:33.595Z,15.90
2023-04-17T22:03:00.746Z,17.73
2023-04-17T22:05:27.886Z,19.93
2023-04-17T22:07:55.655Z,14.83
2023-04-17T22:10:23.095Z,12.03
2023-04-17T22:12:51.522Z,14.30
2023-04-17T22:15:18.675Z,14.30
2023-04-17T22:17:45.896Z,16.73
2023-04-17T22:20:13.331Z,14.17
2023-04-17T22:22:40.479Z,13.77
2023-04-17T22:25:07.833Z,13.63
2023-04-17T22:27:54.727Z,13.70
2023-04-17T22:30:40.655Z,16.70
2023-04-17T22:33:07.798Z,19.40
2023-04-17T22:35:53.704Z,14.70
2023-04-17T22:38:20.792Z,13.83
2023-04-17T22:41:25.080Z,18.17
2023-04-17T22:44:12.547Z,15.90
2023-04-17T22:46:39.965Z,16.27
2023-04-17T22:49:07.196Z,19.63
2023-04-17T22:51:34.301Z,15.20
2023-04-17T22:54:15.215Z,14.63
2023-04-17T22:56:48.329Z,12.93
2023-04-17T22:59:16.741Z,17.10
2023-04-17T23:01:43.948Z,10.87
2023-04-17T23:04:11.184Z,16.73
2023-04-17T23:06:38.398Z,16.30
2023-04-17T23:09:05.454Z,14.53
2023-04-17T23:11:32.617Z,12.00
2023-04-17T23:13:59.841Z,14.73
2023-04-17T23:16:30.852Z,20.07
2023-04-17T23:18:57.957Z,16.13
2023-04-17T23:21:25.024Z,11.60
2023-04-17T23:23:52.229Z,17.80
2023-04-17T23:26:19.544Z,15.23
2023-04-17T23:28:46.655Z,14.47
2023-04-17T23:31:13.750Z,14.83
2023-04-17T23:33:42.205Z,13.67
2023-04-17T23:36:09.257Z,11.00
2023-04-17T23:38:36.395Z,14.53
2023-04-17T23:41:03.501Z,10.30
2023-04-17T23:43:30.547Z,15.63
2023-04-17T23:45:57.666Z,13.10
2023-04-17T23:48:24.818Z,17.53
2023-04-17T23:50:53.189Z,17.90
2023-04-17T23:53:20.294Z,16.13
2023-04-17T23:55:47.482Z,15.30
2023-04-17T23:58:14.547Z,13.37
